Kagel Canyon, California
Current Conditions -  °F | °C
As of 2:53 PM on Monday 24 Nov 2014 (Local Time) from KBUR Reporting Station
Clear Clear  
Wind Chill: 78°   Ceiling: Unl
Heat Index: 78°   Visibility: 10mi
Dew Point: 12°   Wind: 15mph
Humidity: 8%   Direction: 40°NE
Pressure: 30.18"   Gusts: 23mph
Location:  34.3277°N, 118.389°W
Report Text: KBUR 242253Z 04013G20KT 10SM CLR 26/M11 A3018 RMK AO2 SLP209 T02561111
Loading
Personal Weather Stations






























Interactive Weather Map New forecast layout! Learn more

10-Day Weather Forecast

Advertisements
Track Severe Weather on mobile